LPMT

Montijo Airport

Montijo, Portugal
TAF LPMT 210510Z 2106/2206 20005KT CAVOK BECMG 2110/2112 24010KT BECMG 2120/2122 VRB02KT
Issued Valid From Valid To
Aug-21 @ 05:10 UTC
(13 hours ago)
Aug-21 @ 06:00 UTC
(12 hours ago)
Aug-22 @ 06:00 UTC
(in 12 hours)
Expired Click to View Aug-21 @ 06:00 to Aug-21 @ 10:00
TAF LPMT 210510Z 2106/2206 20005KT CAVOK
Wind Visibility Clouds Conditions
200° at 5 knots 10,000+ meters
  • No significant clouds
Becoming Aug-21 @ 10:00 to Aug-21 @ 20:00
BECMG 2110/2112 24010KT
Wind Visibility Clouds Conditions
240° at 10 knots 10,000+ meters
  • No significant clouds
Becoming Aug-21 @ 20:00 to Aug-22 @ 06:00
BECMG 2120/2122 VRB02KT
Wind Visibility Clouds Conditions
Variable at 2 knots 10,000+ meters
  • No significant clouds
TAF LPMT 210510Z 2106/2206 20005KT CAVOK BECMG 2110/2112 24010KT BECMG 2120/2122 VRB02KT
Issued Aug-21 @ 05:10 UTC
(13 hours ago)
Valid From Aug-21 @ 06:00 UTC
(12 hours ago)
Valid To Aug-22 @ 06:00 UTC
(in 12 hours)
Aug-21 @ 06:00 - Aug-21 @ 10:00
Wind Visibility
200° at 5 knots 10,000+ meters
Clouds
  • No significant clouds
Conditions
Becoming Aug-21 @ 10:00 - Aug-21 @ 20:00
Wind Visibility
240° at 10 knots 10,000+ meters
Clouds
  • No significant clouds
Conditions
Becoming Aug-21 @ 20:00 - Aug-22 @ 06:00
Wind Visibility
Variable at 2 knots 10,000+ meters
Clouds
  • No significant clouds
Conditions